Time;durP1;ratioP1;P1;durP2;ratioP2;P2;SDS_P1;SDS_P2;PMS_P1;PMS_P2;Temp;Humidity;BMP_temperature;BMP_pressure;BME280_temperature;BME280_humidity;BME280_pressure;Samples;Min_cycle;Max_cycle;Signal;HPM_P1;HPM_P2
2024/04/07 15:12:46;;;;;;;16.65;2.30;;;23.20;54.70;;;;;;10478637;27;20479;-68
2024/04/07 15:17:49;;;;;;;2.78;1.25;;;23.20;55.10;;;;;;10459497;28;20263;-69
2024/04/07 15:22:52;;;;;;;5.35;1.23;;;23.30;56.40;;;;;;10440134;28;20226;-67
2024/04/07 15:27:56;;;;;;;2.92;1.30;;;23.40;56.30;;;;;;10439651;28;21684;-67
2024/04/07 15:32:59;;;;;;;4.05;1.40;;;23.30;56.50;;;;;;10445768;28;21767;-66
2024/04/07 15:38:02;;;;;;;5.00;1.67;;;23.20;57.00;;;;;;10441816;28;20214;-68
2024/04/07 15:43:06;;;;;;;3.10;1.40;;;23.10;56.80;;;;;;10443835;28;20226;-68
2024/04/07 15:48:09;;;;;;;2.33;1.30;;;23.00;57.00;;;;;;10443459;28;20214;-68
2024/04/07 15:53:11;;;;;;;3.92;1.23;;;22.90;57.10;;;;;;10441076;28;20252;-67
2024/04/07 15:58:15;;;;;;;6.60;2.10;;;22.80;57.10;;;;;;10445997;28;20206;-69
2024/04/07 16:03:23;;;;;;;2.55;1.30;;;22.70;56.80;;;;;;10443762;28;20298;-67
2024/04/07 16:08:26;;;;;;;3.25;1.30;;;22.70;56.50;;;;;;10447723;28;20250;-68
2024/04/07 16:13:30;;;;;;;2.55;1.30;;;22.80;56.80;;;;;;10467326;28;20732;-67
2024/04/07 16:18:32;;;;;;;3.47;1.50;;;22.70;56.00;;;;;;10447791;28;20207;-68
2024/04/07 16:23:35;;;;;;;3.38;1.27;;;22.60;55.70;;;;;;10427058;28;20222;-68
2024/04/07 16:28:40;;;;;;;2.40;1.13;;;22.40;56.00;;;;;;10419226;28;20288;-67
2024/04/07 16:33:44;;;;;;;4.43;1.80;;;22.30;55.90;;;;;;10417518;28;20273;-68
2024/04/07 16:38:47;;;;;;;2.63;1.25;;;22.30;56.30;;;;;;10417564;28;21166;-68
2024/04/07 16:43:51;;;;;;;3.30;1.38;;;22.20;56.20;;;;;;10427132;28;20387;-68
2024/04/07 16:48:53;;;;;;;3.83;1.38;;;22.20;56.10;;;;;;10417323;28;20271;-69
2024/04/07 16:53:56;;;;;;;3.35;1.45;;;22.10;56.70;;;;;;10419139;28;20219;-67
2024/04/07 16:59:02;;;;;;;2.88;1.40;;;22.10;57.00;;;;;;10419832;28;20215;-68
2024/04/07 17:04:05;;;;;;;2.67;1.40;;;22.00;56.90;;;;;;10415161;28;20994;-66
2024/04/07 17:09:08;;;;;;;4.97;1.80;;;22.00;56.70;;;;;;10413215;28;20219;-67
2024/04/07 17:14:13;;;;;;;3.03;1.58;;;21.90;56.90;;;;;;10426844;28;20276;-67
2024/04/07 17:19:16;;;;;;;2.75;1.80;;;21.80;57.10;;;;;;10422686;28;20211;-66
2024/04/07 17:24:18;;;;;;;4.15;2.13;;;21.80;57.40;;;;;;10417435;28;20214;-68
2024/04/07 17:29:22;;;;;;;5.90;2.15;;;21.70;57.50;;;;;;10426209;28;20226;-72
2024/04/07 17:34:25;;;;;;;4.28;1.95;;;21.70;57.50;;;;;;10450186;28;21523;-66
2024/04/07 17:39:28;;;;;;;3.45;2.38;;;21.60;57.80;;;;;;10415515;28;20287;-68
2024/04/07 17:44:32;;;;;;;4.65;2.05;;;21.60;58.10;;;;;;10414374;28;20291;-67
2024/04/07 17:49:35;;;;;;;4.82;2.40;;;21.50;58.20;;;;;;10428598;28;20231;-68
2024/04/07 17:54:37;;;;;;;5.03;2.38;;;21.50;58.40;;;;;;10416040;28;20300;-67
2024/04/07 17:59:41;;;;;;;4.70;2.10;;;21.50;58.40;;;;;;10416826;28;20440;-67
2024/04/07 18:04:44;;;;;;;5.03;2.42;;;21.40;58.60;;;;;;10451440;28;20230;-68
2024/04/07 18:09:47;;;;;;;4.95;2.50;;;21.40;58.70;;;;;;10424214;28;20287;-67
2024/04/07 18:14:51;;;;;;;3.92;2.35;;;21.30;58.90;;;;;;10441314;28;20319;-69
2024/04/07 18:19:54;;;;;;;4.15;2.17;;;21.20;58.90;;;;;;10420072;28;20211;-69
2024/04/07 18:24:56;;;;;;;6.18;2.10;;;21.20;58.50;;;;;;10420464;28;20268;-69
2024/04/07 18:30:00;;;;;;;4.93;2.00;;;21.10;58.20;;;;;;10423935;28;20264;-69
2024/04/07 18:35:03;;;;;;;5.80;2.90;;;21.00;58.30;;;;;;10410955;28;20214;-68
2024/04/07 18:40:07;;;;;;;6.00;2.58;;;21.00;58.10;;;;;;10409950;28;20237;-69
2024/04/07 18:45:11;;;;;;;9.65;5.97;;;20.90;57.70;;;;;;10411296;28;20226;-68
2024/04/07 18:50:15;;;;;;;7.00;4.03;;;20.90;58.10;;;;;;10421182;28;21200;-68
2024/04/07 18:55:19;;;;;;;7.47;4.45;;;20.90;57.90;;;;;;10415102;28;20222;-68
2024/04/07 19:00:23;;;;;;;8.95;5.93;;;20.90;58.00;;;;;;10423040;28;20202;-67
2024/04/07 19:05:26;;;;;;;9.60;4.50;;;20.80;58.00;;;;;;10441362;28;21376;-66
2024/04/07 19:10:28;;;;;;;7.57;3.28;;;20.80;58.20;;;;;;10427931;28;20259;-67
2024/04/07 19:15:32;;;;;;;6.40;2.55;;;20.70;58.10;;;;;;10427461;28;21365;-68
2024/04/07 19:20:35;;;;;;;4.95;2.42;;;20.70;58.00;;;;;;10426856;28;20297;-65
2024/04/07 19:25:38;;;;;;;4.45;2.67;;;20.60;58.40;;;;;;10436721;28;21285;-66
2024/04/07 19:30:42;;;;;;;5.63;2.80;;;20.60;58.70;;;;;;10429510;28;20230;-66
2024/04/07 19:35:44;;;;;;;6.13;2.30;;;20.50;58.70;;;;;;10418753;28;20291;-65
2024/04/07 19:40:47;;;;;;;4.43;2.03;;;20.50;58.80;;;;;;10420851;28;21163;-68
2024/04/07 19:45:51;;;;;;;4.97;2.17;;;20.40;59.30;;;;;;10419477;28;20256;-69
2024/04/07 19:50:56;;;;;;;3.33;2.10;;;20.40;59.70;;;;;;10431371;28;20256;-68
2024/04/07 19:55:59;;;;;;;4.53;2.50;;;20.30;59.80;;;;;;10437659;28;20280;-67
2024/04/07 20:01:06;;;;;;;3.55;2.00;;;20.30;60.10;;;;;;10429308;28;20625;-65
2024/04/07 20:06:09;;;;;;;6.30;2.15;;;20.20;60.60;;;;;;10425530;28;20315;-66
2024/04/07 20:11:11;;;;;;;5.97;1.92;;;20.00;60.80;;;;;;10445623;28;20227;-66
2024/04/07 20:16:15;;;;;;;4.65;2.17;;;20.00;61.20;;;;;;10460299;28;20260;-62
2024/04/07 20:21:18;;;;;;;4.93;2.40;;;19.90;61.10;;;;;;10451746;28;20199;-66
2024/04/07 20:26:21;;;;;;;3.75;2.38;;;19.80;62.30;;;;;;10416814;28;21745;-63
2024/04/07 20:31:25;;;;;;;4.28;2.05;;;19.80;62.90;;;;;;10414924;28;21826;-62
2024/04/07 20:36:28;;;;;;;4.15;2.28;;;19.60;63.80;;;;;;10413856;28;21794;-62
2024/04/07 20:41:30;;;;;;;5.45;2.40;;;19.50;64.50;;;;;;10414413;28;20194;-63
2024/04/07 20:46:34;;;;;;;6.72;2.20;;;19.40;64.40;;;;;;10414708;28;20202;-63
2024/04/07 20:51:37;;;;;;;4.15;2.40;;;19.40;64.90;;;;;;10416412;28;21421;-62
2024/04/07 20:56:40;;;;;;;4.10;2.78;;;19.40;65.10;;;;;;10416374;28;20203;-61
2024/04/07 21:01:44;;;;;;;5.25;2.47;;;19.30;65.50;;;;;;10415664;28;20248;-62
2024/04/07 21:06:47;;;;;;;4.78;2.75;;;19.20;66.10;;;;;;10415091;28;20207;-62
2024/04/07 21:11:49;;;;;;;3.08;2.20;;;19.20;66.60;;;;;;10412280;28;21101;-63
2024/04/07 21:16:53;;;;;;;7.45;2.33;;;19.20;66.50;;;;;;10411783;28;21842;-64
2024/04/07 21:21:56;;;;;;;6.07;3.13;;;19.10;67.00;;;;;;10412467;28;21894;-64
2024/04/07 21:26:59;;;;;;;4.43;2.35;;;19.10;67.20;;;;;;10411361;28;20210;-64
2024/04/07 21:32:03;;;;;;;5.82;2.30;;;19.00;67.20;;;;;;10412083;28;20714;-61
2024/04/07 21:37:06;;;;;;;3.75;2.10;;;19.00;67.60;;;;;;10411407;28;20241;-63
2024/04/07 21:42:08;;;;;;;4.30;2.30;;;18.90;67.60;;;;;;10409573;28;20231;-63
2024/04/07 21:47:12;;;;;;;4.75;2.28;;;18.90;68.10;;;;;;10410812;28;21233;-62
2024/04/07 21:52:15;;;;;;;5.55;2.40;;;18.90;68.00;;;;;;10411258;28;20256;-64
2024/04/07 21:57:18;;;;;;;4.97;2.20;;;18.80;67.80;;;;;;10410090;28;20202;-64
2024/04/07 22:02:22;;;;;;;4.57;2.35;;;18.70;68.10;;;;;;10409438;28;20610;-62
2024/04/07 22:07:24;;;;;;;5.75;3.00;;;18.70;69.10;;;;;;10409186;28;20261;-63
2024/04/07 22:12:27;;;;;;;5.05;2.35;;;18.60;69.40;;;;;;10409442;28;21514;-62
2024/04/07 22:17:31;;;;;;;3.88;2.00;;;18.60;69.50;;;;;;10409439;28;20211;-64
2024/04/07 22:22:34;;;;;;;4.57;2.08;;;18.50;70.10;;;;;;10409823;28;20222;-63
2024/04/07 22:27:36;;;;;;;5.63;2.17;;;18.40;70.50;;;;;;10408604;28;20210;-63
2024/04/07 22:32:40;;;;;;;7.03;2.25;;;18.30;70.90;;;;;;10408426;28;20238;-63
2024/04/07 22:37:43;;;;;;;5.18;2.25;;;18.20;70.50;;;;;;10408334;28;20803;-64
2024/04/07 22:42:45;;;;;;;8.65;2.30;;;18.10;70.70;;;;;;10409505;28;20264;-63
2024/04/07 22:47:49;;;;;;;4.35;1.65;;;18.10;70.70;;;;;;10408325;28;20206;-64
2024/04/07 22:52:52;;;;;;;3.95;2.13;;;18.00;70.70;;;;;;10408729;28;20238;-64
2024/04/07 22:57:55;;;;;;;5.60;2.10;;;18.00;71.30;;;;;;10407541;28;20287;-61
2024/04/07 23:02:59;;;;;;;3.97;2.15;;;17.90;71.70;;;;;;10404868;28;20238;-64
2024/04/07 23:08:01;;;;;;;5.85;2.10;;;17.90;72.00;;;;;;10403809;28;20219;-63
2024/04/07 23:13:04;;;;;;;5.20;2.28;;;17.80;72.00;;;;;;10407402;28;21573;-64
2024/04/07 23:18:09;;;;;;;4.45;2.20;;;17.80;71.90;;;;;;10407523;28;21451;-64
2024/04/07 23:23:12;;;;;;;3.78;2.13;;;17.70;72.30;;;;;;10406590;28;20307;-63
2024/04/07 23:28:14;;;;;;;4.35;2.10;;;17.70;72.50;;;;;;10406281;28;20658;-63
2024/04/07 23:33:18;;;;;;;3.72;1.88;;;17.60;73.10;;;;;;10413188;28;20230;-63
2024/04/07 23:38:21;;;;;;;3.72;1.92;;;17.60;72.60;;;;;;10414820;28;21279;-63
2024/04/07 23:43:24;;;;;;;4.00;1.90;;;17.60;72.50;;;;;;10413334;28;20215;-63
2024/04/07 23:48:28;;;;;;;5.95;2.47;;;17.50;72.90;;;;;;10414058;28;20206;-63
2024/04/07 23:53:31;;;;;;;5.00;2.20;;;17.50;73.50;;;;;;10414363;28;20304;-63
2024/04/07 23:58:33;;;;;;;5.35;2.35;;;17.40;74.10;;;;;;10415215;28;20202;-63
